createdAt,value
2023-01-09T00:00:29.327Z,98914.81
2023-01-09T00:02:56.847Z,98910.59
2023-01-09T00:05:24.058Z,98917.22
2023-01-09T00:07:51.192Z,98920.66
2023-01-09T00:10:18.847Z,98924.38
2023-01-09T00:12:46.062Z,98924.84
2023-01-09T00:15:13.461Z,98916.50
2023-01-09T00:17:41.363Z,98911.63
2023-01-09T00:20:09.798Z,98911.13
2023-01-09T00:22:37.550Z,98910.09
2023-01-09T00:25:05.475Z,98907.81
2023-01-09T00:27:35.925Z,98903.78
2023-01-09T00:30:03.505Z,98910.66
2023-01-09T00:32:32.235Z,98903.41
2023-01-09T00:34:59.467Z,98900.12
2023-01-09T00:37:26.725Z,98907.16
2023-01-09T00:39:54.150Z,98903.28
2023-01-09T00:42:22.585Z,98902.50
2023-01-09T00:44:51.139Z,98896.13
2023-01-09T00:47:51.168Z,98897.72
2023-01-09T00:50:22.608Z,98894.94
2023-01-09T00:52:50.529Z,98894.47
2023-01-09T00:55:17.720Z,98887.34
2023-01-09T00:57:44.916Z,98883.06
2023-01-09T01:00:12.854Z,98880.97
2023-01-09T01:02:40.074Z,98884.19
2023-01-09T01:05:26.392Z,98889.13
2023-01-09T01:07:53.857Z,98883.25
2023-01-09T01:10:22.365Z,98885.59
2023-01-09T01:12:49.861Z,98883.31
2023-01-09T01:15:17.536Z,98870.75
2023-01-09T01:17:45.041Z,98874.66
2023-01-09T01:20:13.680Z,98867.91
2023-01-09T01:22:44.125Z,98872.97
2023-01-09T01:25:12.134Z,98872.47
2023-01-09T01:27:39.316Z,98865.50
2023-01-09T01:30:07.332Z,98860.69
2023-01-09T01:32:34.575Z,98860.31
2023-01-09T01:35:01.782Z,98848.50
2023-01-09T01:37:29.301Z,98846.97
2023-01-09T01:39:56.542Z,98839.75
2023-01-09T01:42:23.704Z,98839.12
2023-01-09T01:45:10.017Z,98843.59
2023-01-09T01:47:37.218Z,98828.41
2023-01-09T01:50:07.634Z,98818.78
2023-01-09T01:52:34.905Z,98826.41
2023-01-09T01:55:02.489Z,98817.09
2023-01-09T01:57:30.407Z,98827.00
2023-01-09T01:59:57.789Z,98817.00
2023-01-09T02:02:25.908Z,98811.13
2023-01-09T02:04:53.810Z,98813.50
2023-01-09T02:07:21.274Z,98810.31
2023-01-09T02:09:48.495Z,98805.56
2023-01-09T02:12:17.193Z,98795.53
2023-01-09T02:14:44.734Z,98790.81
2023-01-09T02:17:41.306Z,98794.00
2023-01-09T02:20:19.563Z,98788.41
2023-01-09T02:22:55.954Z,98784.28
2023-01-09T02:25:35.375Z,98782.25
2023-01-09T02:28:02.657Z,98786.38
2023-01-09T02:30:31.250Z,98786.91
2023-01-09T02:33:01.506Z,98787.00
2023-01-09T02:35:34.946Z,98777.66
2023-01-09T02:38:21.289Z,98770.88
2023-01-09T02:40:57.555Z,98784.50
2023-01-09T02:43:25.220Z,98780.50
2023-01-09T02:45:52.612Z,98770.53
2023-01-09T02:48:19.866Z,98773.72
2023-01-09T02:50:59.410Z,98773.22
2023-01-09T02:53:36.764Z,98766.97
2023-01-09T02:56:04.111Z,98764.94
2023-01-09T02:58:33.427Z,98754.56
2023-01-09T03:01:12.921Z,98749.84
2023-01-09T03:03:41.753Z,98733.69
2023-01-09T03:06:15.191Z,98737.75
2023-01-09T03:08:46.590Z,98739.91
2023-01-09T03:11:13.964Z,98743.81
2023-01-09T03:13:50.047Z,98736.00
2023-01-09T03:16:24.026Z,98740.06
2023-01-09T03:18:51.214Z,98739.91
2023-01-09T03:21:18.662Z,98737.38
2023-01-09T03:23:50.532Z,98730.94
2023-01-09T03:26:18.071Z,98732.50
2023-01-09T03:28:45.628Z,98719.47
2023-01-09T03:31:12.831Z,98722.66
2023-01-09T03:33:40.168Z,98737.84
2023-01-09T03:36:08.133Z,98733.91
2023-01-09T03:38:35.496Z,98724.97
2023-01-09T03:41:02.743Z,98724.59
2023-01-09T03:43:30.756Z,98725.88
2023-01-09T03:45:57.981Z,98718.25
2023-01-09T03:48:25.289Z,98718.16
2023-01-09T03:50:53.187Z,98708.94
2023-01-09T03:53:20.825Z,98712.16
2023-01-09T03:55:48.772Z,98714.03
2023-01-09T03:58:16.627Z,98719.22
2023-01-09T04:00:46.000Z,98719.50
2023-01-09T04:03:13.503Z,98707.59
2023-01-09T04:05:40.645Z,98716.16
2023-01-09T04:08:07.786Z,98709.91
2023-01-09T04:10:35.303Z,98708.28
2023-01-09T04:13:02.799Z,98702.69
2023-01-09T04:15:29.985Z,98695.38
2023-01-09T04:17:57.391Z,98702.75
2023-01-09T04:20:24.561Z,98703.41
2023-01-09T04:22:51.752Z,98709.16
2023-01-09T04:25:19.174Z,98718.75
2023-01-09T04:27:47.234Z,98719.06
2023-01-09T04:30:15.845Z,98719.38
2023-01-09T04:32:43.347Z,98719.13
2023-01-09T04:35:10.861Z,98715.56
2023-01-09T04:37:38.029Z,98720.41
2023-01-09T04:40:08.839Z,98712.91
2023-01-09T04:42:39.326Z,98722.19
2023-01-09T04:45:07.712Z,98719.38
2023-01-09T04:47:34.879Z,98717.75
2023-01-09T04:50:02.034Z,98710.72
2023-01-09T04:52:29.599Z,98709.91
2023-01-09T04:54:56.789Z,98717.09
2023-01-09T04:57:24.044Z,98711.69
2023-01-09T04:59:52.267Z,98705.44
2023-01-09T05:02:20.073Z,98700.72
2023-01-09T05:04:47.241Z,98705.72
2023-01-09T05:07:14.760Z,98713.22
2023-01-09T05:09:42.015Z,98704.28
2023-01-09T05:12:09.162Z,98709.22
2023-01-09T05:14:36.869Z,98697.03
2023-01-09T05:17:04.050Z,98701.91
2023-01-09T05:19:31.283Z,98703.97
2023-01-09T05:21:58.679Z,98700.06
2023-01-09T05:24:25.861Z,98699.69
2023-01-09T05:26:53.062Z,98692.44
2023-01-09T05:29:20.544Z,98702.22
2023-01-09T05:31:47.857Z,98698.44
2023-01-09T05:34:15.095Z,98693.41
2023-01-09T05:36:42.542Z,98698.84
2023-01-09T05:39:09.856Z,98698.50
2023-01-09T05:41:37.025Z,98706.34
2023-01-09T05:44:04.994Z,98698.00
2023-01-09T05:46:32.333Z,98705.72
2023-01-09T05:48:59.577Z,98707.00
2023-01-09T05:51:27.007Z,98700.00
2023-01-09T05:53:54.190Z,98706.25
2023-01-09T05:56:21.458Z,98699.97
2023-01-09T05:58:48.911Z,98691.13
2023-01-09T06:01:16.349Z,98691.81
2023-01-09T06:03:44.127Z,98695.03
2023-01-09T06:06:11.330Z,98693.91
2023-01-09T06:08:38.526Z,98699.00
2023-01-09T06:11:06.039Z,98699.34
2023-01-09T06:13:33.160Z,98706.34
2023-01-09T06:16:00.477Z,98710.38
2023-01-09T06:18:27.927Z,98709.06
2023-01-09T06:20:55.132Z,98710.53
2023-01-09T06:23:22.260Z,98712.37
2023-01-09T06:25:49.729Z,98716.88
2023-01-09T06:28:16.925Z,98725.19
2023-01-09T06:30:44.147Z,98717.16
2023-01-09T06:33:11.663Z,98715.41
2023-01-09T06:35:38.814Z,98716.75
2023-01-09T06:38:06.205Z,98717.72
2023-01-09T06:40:33.746Z,98724.06
2023-01-09T06:43:00.889Z,98708.13
2023-01-09T06:45:28.156Z,98724.47
2023-01-09T06:47:55.631Z,98717.91
2023-01-09T06:50:22.822Z,98715.38
2023-01-09T06:52:50.025Z,98717.31
2023-01-09T06:55:17.861Z,98708.50
2023-01-09T06:57:45.110Z,98710.91
2023-01-09T07:00:12.499Z,98702.12
2023-01-09T07:02:39.953Z,98710.75
2023-01-09T07:05:08.652Z,98709.69
2023-01-09T07:07:35.873Z,98713.87
2023-01-09T07:10:03.306Z,98707.28
2023-01-09T07:12:30.485Z,98714.50
2023-01-09T07:14:57.762Z,98708.47
2023-01-09T07:17:25.630Z,98705.31
2023-01-09T07:19:52.768Z,98709.47
2023-01-09T07:22:19.926Z,98710.31
2023-01-09T07:24:47.637Z,98709.41
2023-01-09T07:27:15.513Z,98711.66
2023-01-09T07:29:42.682Z,98717.88
2023-01-09T07:32:10.199Z,98713.03
2023-01-09T07:34:37.389Z,98708.78
2023-01-09T07:37:04.683Z,98702.66
2023-01-09T07:39:32.190Z,98702.75
2023-01-09T07:41:59.355Z,98698.53
2023-01-09T07:44:26.607Z,98683.37
2023-01-09T07:46:54.137Z,98680.19
2023-01-09T07:49:21.406Z,98685.78
2023-01-09T07:51:48.716Z,98688.22
2023-01-09T07:54:16.418Z,98675.16
2023-01-09T07:56:43.669Z,98667.44
2023-01-09T07:59:10.849Z,98676.88
2023-01-09T08:01:38.423Z,98682.69
2023-01-09T08:04:05.954Z,98676.16
2023-01-09T08:06:33.324Z,98668.72
2023-01-09T08:09:00.547Z,98658.41
2023-01-09T08:11:28.012Z,98668.16
2023-01-09T08:13:55.173Z,98678.00
2023-01-09T08:16:22.559Z,98688.28
2023-01-09T08:18:50.139Z,98698.84
2023-01-09T08:21:17.379Z,98698.56
2023-01-09T08:23:45.620Z,98682.09
2023-01-09T08:26:13.164Z,98694.97
2023-01-09T08:28:40.329Z,98686.16
2023-01-09T08:31:07.553Z,98688.38
2023-01-09T08:33:35.117Z,98677.84
2023-01-09T08:36:02.455Z,98682.09
2023-01-09T08:38:29.644Z,98678.09
2023-01-09T08:40:57.147Z,98678.72
2023-01-09T08:43:43.054Z,98686.69
2023-01-09T08:46:34.680Z,98682.28
2023-01-09T08:49:02.004Z,98681.22
2023-01-09T08:51:29.450Z,98679.41
2023-01-09T08:53:56.592Z,98687.25
2023-01-09T08:56:23.821Z,98678.88
2023-01-09T08:58:51.284Z,98676.38
2023-01-09T09:01:18.512Z,98671.81
2023-01-09T09:03:45.754Z,98662.03
2023-01-09T09:06:13.252Z,98661.72
2023-01-09T09:08:40.463Z,98662.63
2023-01-09T09:11:07.925Z,98652.41
2023-01-09T09:13:35.375Z,98656.56
2023-01-09T09:16:02.605Z,98659.37
2023-01-09T09:18:29.808Z,98662.16
2023-01-09T09:20:57.302Z,98648.75
2023-01-09T09:23:24.734Z,98651.41
2023-01-09T09:25:51.992Z,98653.28
2023-01-09T09:28:19.451Z,98653.16
2023-01-09T09:30:46.654Z,98649.41
2023-01-09T09:33:13.798Z,98653.69
2023-01-09T09:35:41.326Z,98644.16
2023-01-09T09:38:08.522Z,98638.50
2023-01-09T09:40:42.835Z,98641.50
2023-01-09T09:43:39.124Z,98629.87
2023-01-09T09:46:15.521Z,98634.91
2023-01-09T09:48:48.723Z,98634.84
2023-01-09T09:51:18.938Z,98635.72
2023-01-09T09:53:49.439Z,98641.00
2023-01-09T09:56:17.374Z,98625.75
2023-01-09T09:58:45.844Z,98630.47
2023-01-09T10:01:15.278Z,98643.41
2023-01-09T10:03:52.671Z,98645.09
2023-01-09T10:06:49.127Z,98639.72
2023-01-09T10:09:25.675Z,98632.62
2023-01-09T10:11:57.391Z,98624.25
2023-01-09T10:14:24.993Z,98620.19
2023-01-09T10:16:58.302Z,98627.75
2023-01-09T10:19:44.263Z,98623.97
2023-01-09T10:22:18.150Z,98612.75
2023-01-09T10:24:51.497Z,98616.50
2023-01-09T10:27:21.823Z,98603.69
2023-01-09T10:29:57.845Z,98605.91
2023-01-09T10:32:37.070Z,98604.09
2023-01-09T10:35:13.729Z,98603.75
2023-01-09T10:37:42.652Z,98601.72
2023-01-09T10:40:18.423Z,98584.00
2023-01-09T10:42:55.521Z,98588.34
2023-01-09T10:45:22.980Z,98580.12
2023-01-09T10:47:50.214Z,98581.47
2023-01-09T10:50:21.650Z,98576.09
2023-01-09T10:52:49.870Z,98566.16
2023-01-09T10:55:19.462Z,98569.84
2023-01-09T10:57:50.730Z,98545.13
2023-01-09T11:00:23.722Z,98547.31
2023-01-09T11:02:51.932Z,98544.50
2023-01-09T11:05:20.614Z,98541.66
2023-01-09T11:07:49.521Z,98533.03
2023-01-09T11:10:17.441Z,98535.66
2023-01-09T11:12:44.944Z,98533.25
2023-01-09T11:15:23.763Z,98529.63
2023-01-09T11:17:51.581Z,98536.81
2023-01-09T11:20:28.606Z,98530.44
2023-01-09T11:22:57.219Z,98535.31
2023-01-09T11:25:25.470Z,98526.91
2023-01-09T11:28:01.784Z,98529.28
2023-01-09T11:30:29.880Z,98523.41
2023-01-09T11:32:57.841Z,98519.19
2023-01-09T11:35:34.156Z,98525.16
2023-01-09T11:38:03.590Z,98518.31
2023-01-09T11:40:32.327Z,98513.59
2023-01-09T11:43:02.532Z,98506.94
2023-01-09T11:45:30.960Z,98515.41
2023-01-09T11:47:58.375Z,98523.25
2023-01-09T11:50:26.577Z,98522.06
2023-01-09T11:53:12.717Z,98518.03
2023-01-09T11:55:42.767Z,98507.09
2023-01-09T11:58:14.657Z,98512.47
2023-01-09T12:00:53.883Z,98513.13
2023-01-09T12:03:33.783Z,98505.41
2023-01-09T12:06:10.280Z,98503.22
2023-01-09T12:08:43.653Z,98486.16
2023-01-09T12:11:17.162Z,98487.50
2023-01-09T12:13:48.926Z,98480.50
2023-01-09T12:16:19.217Z,98478.84
2023-01-09T12:18:58.585Z,98480.47
2023-01-09T12:21:32.049Z,98488.75
2023-01-09T12:24:14.731Z,98496.78
2023-01-09T12:27:04.134Z,98479.38
2023-01-09T12:29:31.617Z,98469.28
2023-01-09T12:32:10.973Z,98469.78
2023-01-09T12:34:57.263Z,98469.03
2023-01-09T12:37:43.286Z,98464.66
2023-01-09T12:40:13.622Z,98463.78
2023-01-09T12:42:43.794Z,98458.84
2023-01-09T12:45:20.134Z,98461.25
2023-01-09T12:47:48.077Z,98458.72
2023-01-09T12:50:31.917Z,98449.16
2023-01-09T12:53:04.485Z,98453.66
2023-01-09T12:55:36.099Z,98444.34
2023-01-09T12:58:06.823Z,98449.81
2023-01-09T13:00:35.670Z,98437.06
2023-01-09T13:03:12.879Z,98430.50
2023-01-09T13:05:43.012Z,98430.03
2023-01-09T13:08:28.573Z,98433.34
2023-01-09T13:10:57.496Z,98433.97
2023-01-09T13:13:43.685Z,98435.44
2023-01-09T13:16:13.846Z,98431.94
2023-01-09T13:18:44.251Z,98441.94
2023-01-09T13:21:12.372Z,98437.94
2023-01-09T13:23:42.310Z,98443.72
2023-01-09T13:26:10.655Z,98449.81
2023-01-09T13:28:41.330Z,98452.06
2023-01-09T13:31:17.787Z,98453.53
2023-01-09T13:33:46.053Z,98450.12
2023-01-09T13:36:39.801Z,98448.38
2023-01-09T13:39:07.337Z,98453.87
2023-01-09T13:41:53.599Z,98443.53
2023-01-09T13:44:22.257Z,98447.41
2023-01-09T13:46:53.577Z,98457.66
2023-01-09T13:49:36.631Z,98455.72
2023-01-09T13:52:03.909Z,98463.53
2023-01-09T13:54:50.067Z,98449.38
2023-01-09T13:57:20.388Z,98453.00
2023-01-09T13:59:50.595Z,98445.38
2023-01-09T14:02:41.297Z,98444.56
2023-01-09T14:05:09.661Z,98447.72
2023-01-09T14:07:37.724Z,98447.66
2023-01-09T14:10:06.241Z,98451.03
2023-01-09T14:12:38.710Z,98460.94
2023-01-09T14:15:06.045Z,98466.28
2023-01-09T14:17:37.162Z,98461.75
2023-01-09T14:20:08.767Z,98458.44
2023-01-09T14:22:45.696Z,98455.50
2023-01-09T14:25:25.234Z,98456.09
2023-01-09T14:27:55.567Z,98454.34
2023-01-09T14:30:25.929Z,98445.81
2023-01-09T14:32:58.901Z,98442.88
2023-01-09T14:35:28.054Z,98441.56
2023-01-09T14:38:02.757Z,98431.53
2023-01-09T14:40:29.968Z,98431.44
2023-01-09T14:42:58.139Z,98435.09
2023-01-09T14:45:26.199Z,98450.25
2023-01-09T14:48:00.907Z,98447.56
2023-01-09T14:50:41.032Z,98444.22
2023-01-09T14:53:12.327Z,98442.66
2023-01-09T14:55:45.864Z,98450.50
2023-01-09T14:58:19.057Z,98451.34
2023-01-09T15:00:51.612Z,98454.03
2023-01-09T15:03:19.228Z,98458.09
2023-01-09T15:05:46.756Z,98457.31
2023-01-09T15:08:16.803Z,98460.50
2023-01-09T15:10:45.091Z,98465.03
2023-01-09T15:13:14.493Z,98468.44
2023-01-09T15:15:45.926Z,98465.09
2023-01-09T15:18:18.215Z,98462.22
2023-01-09T15:20:45.438Z,98460.38
2023-01-09T15:23:22.131Z,98472.50
2023-01-09T15:25:49.652Z,98457.19
2023-01-09T15:28:26.088Z,98468.78
2023-01-09T15:31:04.209Z,98463.25
2023-01-09T15:33:31.626Z,98459.59
2023-01-09T15:36:02.760Z,98459.88
2023-01-09T15:38:31.088Z,98453.50
2023-01-09T15:40:59.694Z,98455.53
2023-01-09T15:43:27.261Z,98444.97
2023-01-09T15:45:54.485Z,98444.56
2023-01-09T15:48:22.062Z,98435.00
2023-01-09T15:50:50.673Z,98435.53
2023-01-09T15:53:18.746Z,98429.13
2023-01-09T15:55:49.490Z,98419.53
2023-01-09T15:58:29.883Z,98409.16
2023-01-09T16:00:58.272Z,98409.41
2023-01-09T16:03:25.923Z,98406.94
2023-01-09T16:05:55.289Z,98403.06
2023-01-09T16:08:24.080Z,98402.94
2023-01-09T16:10:52.454Z,98410.41
2023-01-09T16:13:20.860Z,98404.09
2023-01-09T16:15:48.057Z,98402.84
2023-01-09T16:18:15.496Z,98408.13
2023-01-09T16:20:42.898Z,98403.59
2023-01-09T16:23:24.162Z,98403.91
2023-01-09T16:26:01.457Z,98398.53
2023-01-09T16:28:30.833Z,98390.31
2023-01-09T16:30:59.414Z,98394.47
2023-01-09T16:33:27.225Z,98397.62
2023-01-09T16:35:54.602Z,98400.25
2023-01-09T16:38:22.820Z,98399.13
2023-01-09T16:41:18.764Z,98397.66
2023-01-09T16:43:46.381Z,98390.13
2023-01-09T16:46:14.352Z,98399.22
2023-01-09T16:48:41.563Z,98394.13
2023-01-09T16:51:16.375Z,98398.13
2023-01-09T16:53:43.964Z,98396.59
2023-01-09T16:56:18.707Z,98384.87
2023-01-09T16:58:46.459Z,98387.13
2023-01-09T17:01:15.024Z,98391.72
2023-01-09T17:03:44.068Z,98388.03
2023-01-09T17:06:28.589Z,98383.50
2023-01-09T17:08:56.355Z,98376.06
2023-01-09T17:11:32.821Z,98382.28
2023-01-09T17:14:03.817Z,98387.78
2023-01-09T17:16:30.994Z,98391.59
2023-01-09T17:18:58.222Z,98386.75
2023-01-09T17:21:26.897Z,98388.81
2023-01-09T17:24:12.622Z,98389.34
2023-01-09T17:26:59.870Z,98389.38
2023-01-09T17:29:27.670Z,98385.06
2023-01-09T17:31:55.262Z,98380.38
2023-01-09T17:34:22.477Z,98375.66
2023-01-09T17:36:49.783Z,98377.87
2023-01-09T17:39:17.374Z,98380.66
2023-01-09T17:41:44.672Z,98369.28
2023-01-09T17:44:11.938Z,98362.00
2023-01-09T17:46:40.485Z,98363.47
2023-01-09T17:49:07.970Z,98361.19
2023-01-09T17:51:35.253Z,98356.81
2023-01-09T17:54:02.783Z,98353.19
2023-01-09T17:56:32.506Z,98353.44
2023-01-09T17:58:59.859Z,98358.00
2023-01-09T18:01:27.308Z,98358.12
2023-01-09T18:03:54.940Z,98360.31
2023-01-09T18:06:22.362Z,98358.97
2023-01-09T18:08:49.567Z,98352.84
2023-01-09T18:11:18.413Z,98349.31
2023-01-09T18:13:46.034Z,98350.19
2023-01-09T18:16:13.928Z,98343.84
2023-01-09T18:18:41.562Z,98345.53
2023-01-09T18:21:09.108Z,98344.00
2023-01-09T18:23:36.329Z,98345.88
2023-01-09T18:26:07.181Z,98344.38
2023-01-09T18:28:38.116Z,98335.84
2023-01-09T18:31:06.212Z,98335.16
2023-01-09T18:33:33.526Z,98341.03
2023-01-09T18:36:07.523Z,98340.00
2023-01-09T18:38:35.000Z,98337.34
2023-01-09T18:41:02.494Z,98323.34
2023-01-09T18:43:29.912Z,98320.34
2023-01-09T18:45:57.481Z,98320.81
2023-01-09T18:48:25.081Z,98327.59
2023-01-09T18:50:52.396Z,98323.91
2023-01-09T18:53:20.066Z,98322.56
2023-01-09T18:55:47.550Z,98319.03
2023-01-09T18:58:16.470Z,98312.56
2023-01-09T19:00:46.002Z,98307.84
2023-01-09T19:03:13.824Z,98308.50
2023-01-09T19:05:41.167Z,98304.13
2023-01-09T19:08:09.942Z,98309.53
2023-01-09T19:10:37.289Z,98308.16
2023-01-09T19:13:05.146Z,98309.13
2023-01-09T19:15:34.720Z,98299.09
2023-01-09T19:18:02.002Z,98300.03
2023-01-09T19:20:29.814Z,98295.00
2023-01-09T19:22:57.370Z,98292.09
2023-01-09T19:25:24.964Z,98287.22
2023-01-09T19:27:54.910Z,98286.09
2023-01-09T19:30:22.614Z,98291.38
2023-01-09T19:32:49.971Z,98289.00
2023-01-09T19:35:17.673Z,98293.50
2023-01-09T19:37:45.363Z,98294.00
2023-01-09T19:40:12.865Z,98295.00
2023-01-09T19:42:40.085Z,98287.97
2023-01-09T19:45:08.075Z,98289.75
2023-01-09T19:47:38.106Z,98289.06
2023-01-09T19:50:05.732Z,98281.13
2023-01-09T19:52:33.431Z,98276.91
2023-01-09T19:55:00.647Z,98274.59
2023-01-09T19:57:27.920Z,98275.56
2023-01-09T19:59:55.406Z,98266.69
2023-01-09T20:02:22.630Z,98270.72
2023-01-09T20:04:50.180Z,98273.59
2023-01-09T20:07:17.467Z,98275.25
2023-01-09T20:09:44.900Z,98271.87
2023-01-09T20:12:12.508Z,98270.16
2023-01-09T20:14:39.760Z,98256.75
2023-01-09T20:17:06.977Z,98261.13
2023-01-09T20:19:35.183Z,98256.28
2023-01-09T20:22:02.397Z,98252.41
2023-01-09T20:24:29.761Z,98252.31
2023-01-09T20:26:57.362Z,98246.38
2023-01-09T20:29:24.857Z,98243.38
2023-01-09T20:31:52.546Z,98241.34
2023-01-09T20:34:20.227Z,98244.69
2023-01-09T20:36:47.476Z,98235.84
2023-01-09T20:39:14.956Z,98231.25
2023-01-09T20:41:42.529Z,98223.50
2023-01-09T20:44:11.625Z,98234.78
2023-01-09T20:46:40.141Z,98228.31
2023-01-09T20:49:09.649Z,98231.66
2023-01-09T20:51:40.163Z,98224.66
2023-01-09T20:54:07.648Z,98227.59
2023-01-09T20:56:36.270Z,98225.19
2023-01-09T20:59:04.270Z,98220.50
2023-01-09T21:01:32.048Z,98226.69
2023-01-09T21:03:59.344Z,98229.19
2023-01-09T21:06:27.223Z,98222.12
2023-01-09T21:08:54.738Z,98220.16
2023-01-09T21:11:22.158Z,98228.56
2023-01-09T21:13:49.595Z,98218.09
2023-01-09T21:16:19.913Z,98222.09
2023-01-09T21:18:47.520Z,98223.75
2023-01-09T21:21:15.716Z,98228.75
2023-01-09T21:23:46.454Z,98230.56
2023-01-09T21:26:13.919Z,98229.69
2023-01-09T21:28:50.665Z,98229.81
2023-01-09T21:31:19.470Z,98229.50
2023-01-09T21:33:47.042Z,98225.47
2023-01-09T21:36:14.932Z,98230.25
2023-01-09T21:38:42.469Z,98231.25
2023-01-09T21:41:28.059Z,98226.38
2023-01-09T21:44:14.557Z,98227.34
2023-01-09T21:46:55.979Z,98238.38
2023-01-09T21:49:25.494Z,98230.31
2023-01-09T21:51:53.473Z,98229.78
2023-01-09T21:54:21.585Z,98230.25
2023-01-09T21:56:49.286Z,98236.78
2023-01-09T21:59:17.188Z,98223.03
2023-01-09T22:01:44.467Z,98229.06
2023-01-09T22:04:13.611Z,98230.28
2023-01-09T22:06:40.872Z,98234.22
2023-01-09T22:09:08.089Z,98238.47
2023-01-09T22:11:35.976Z,98232.28
2023-01-09T22:14:03.270Z,98233.56
2023-01-09T22:16:30.681Z,98234.84
2023-01-09T22:18:58.296Z,98243.28
2023-01-09T22:21:25.692Z,98243.06
2023-01-09T22:23:52.985Z,98234.59
2023-01-09T22:26:20.598Z,98242.53
2023-01-09T22:28:48.004Z,98240.25
2023-01-09T22:31:16.786Z,98242.59
2023-01-09T22:33:44.295Z,98234.56
2023-01-09T22:36:11.787Z,98240.87
2023-01-09T22:38:39.248Z,98238.47
2023-01-09T22:41:06.817Z,98240.84
2023-01-09T22:43:34.057Z,98239.91
2023-01-09T22:46:02.048Z,98235.53
2023-01-09T22:48:31.839Z,98228.84
2023-01-09T22:51:00.339Z,98235.09
2023-01-09T22:53:27.931Z,98239.63
2023-01-09T22:55:56.671Z,98231.81
2023-01-09T22:58:24.442Z,98243.88
2023-01-09T23:00:51.729Z,98239.69
2023-01-09T23:03:19.212Z,98237.75
2023-01-09T23:05:46.462Z,98236.34
2023-01-09T23:08:14.329Z,98239.44
2023-01-09T23:10:42.033Z,98237.78
2023-01-09T23:13:09.212Z,98227.25
2023-01-09T23:15:36.464Z,98232.84
2023-01-09T23:18:04.006Z,98226.13
2023-01-09T23:20:31.238Z,98229.72
2023-01-09T23:22:59.085Z,98227.19
2023-01-09T23:25:26.669Z,98227.31
2023-01-09T23:27:53.870Z,98227.50
2023-01-09T23:30:21.067Z,98225.03
2023-01-09T23:32:48.572Z,98223.44
2023-01-09T23:35:18.463Z,98224.94
2023-01-09T23:37:45.652Z,98223.44
2023-01-09T23:40:13.277Z,98226.16
2023-01-09T23:42:59.275Z,98220.84
2023-01-09T23:45:26.793Z,98224.06
2023-01-09T23:47:54.002Z,98223.16
2023-01-09T23:50:21.288Z,98220.03
2023-01-09T23:52:48.800Z,98220.56
2023-01-09T23:55:15.984Z,98220.75
2023-01-09T23:57:43.190Z,98227.81
